Time;durP1;ratioP1;P1;durP2;ratioP2;P2;SDS_P1;SDS_P2;PMS_P1;PMS_P2;Temp;Humidity;BMP_temperature;BMP_pressure;BME280_temperature;BME280_humidity;BME280_pressure;Samples;Min_cycle;Max_cycle;Signal;HPM_P1;HPM_P2
2023/08/09 00:01:07;;;;;;;2.93;2.50;;;15.50;99.90;;;;;;4993512;28;20416;-52
2023/08/09 00:03:33;;;;;;;3.83;2.67;;;15.10;99.90;;;;;;4993477;28;20451;-52
2023/08/09 00:06:00;;;;;;;5.63;2.33;;;15.40;99.90;;;;;;4993086;28;20484;-51
2023/08/09 00:08:27;;;;;;;3.23;2.43;;;15.40;99.90;;;;;;4993312;28;20449;-52
2023/08/09 00:10:53;;;;;;;5.03;2.47;;;15.40;99.90;;;;;;4993340;28;20802;-52
2023/08/09 00:13:21;;;;;;;3.77;2.30;;;15.40;99.90;;;;;;4993234;28;20963;-51
2023/08/09 00:15:48;;;;;;;3.50;2.17;;;15.20;99.90;;;;;;4992032;28;20443;-52
2023/08/09 00:18:14;;;;;;;3.70;2.13;;;15.70;99.90;;;;;;4992791;28;20414;-52
2023/08/09 00:20:41;;;;;;;3.80;2.27;;;14.90;99.90;;;;;;4993268;28;20437;-52
2023/08/09 00:23:08;;;;;;;4.20;2.20;;;15.30;99.90;;;;;;4993055;28;20461;-52
2023/08/09 00:25:34;;;;;;;6.10;2.50;;;15.00;99.90;;;;;;4992030;28;20461;-52
2023/08/09 00:28:02;;;;;;;8.43;2.50;;;15.30;99.90;;;;;;4992707;28;20436;-52
2023/08/09 00:30:30;;;;;;;3.00;1.93;;;15.30;99.90;;;;;;4992776;28;20433;-52
2023/08/09 00:32:57;;;;;;;3.73;2.57;;;15.30;99.90;;;;;;4992790;28;20936;-52
2023/08/09 00:38:15;;;;;;;4.13;2.03;;;15.30;99.90;;;;;;4991044;28;20580;-44
2023/08/09 00:40:42;;;;;;;3.00;1.83;;;15.20;99.90;;;;;;4992681;28;20463;-45
2023/08/09 00:43:08;;;;;;;4.80;2.73;;;15.30;99.90;;;;;;4991156;28;20449;-45
2023/08/09 00:45:38;;;;;;;5.10;2.10;;;15.30;99.90;;;;;;4992349;28;20441;-44
2023/08/09 00:48:05;;;;;;;6.67;2.30;;;15.30;99.90;;;;;;4990861;28;20510;-45
2023/08/09 00:50:31;;;;;;;3.87;2.37;;;15.30;99.90;;;;;;4991004;28;20449;-45
2023/08/09 00:52:59;;;;;;;4.33;2.50;;;15.30;99.90;;;;;;4991292;28;20476;-45
2023/08/09 00:55:26;;;;;;;3.10;1.70;;;15.30;99.90;;;;;;4991555;28;20437;-44
2023/08/09 00:57:53;;;;;;;3.40;2.10;;;15.40;99.90;;;;;;4992966;28;20413;-45
2023/08/09 01:00:20;;;;;;;4.70;2.30;;;15.40;99.90;;;;;;4993120;28;20845;-45
2023/08/09 01:02:48;;;;;;;3.70;2.00;;;15.40;99.90;;;;;;4992781;28;20441;-45
2023/08/09 01:05:15;;;;;;;3.47;1.43;;;15.40;99.90;;;;;;4992642;28;20416;-44
2023/08/09 01:07:50;;;;;;;3.20;2.40;;;15.50;99.90;;;;;;4991835;28;20576;-44
2023/08/09 01:10:23;;;;;;;3.07;1.40;;;15.40;99.90;;;;;;4992309;28;20432;-44
2023/08/09 01:12:53;;;;;;;4.47;1.87;;;15.40;99.90;;;;;;4992343;28;20420;-44
2023/08/09 01:15:22;;;;;;;4.40;1.53;;;15.40;99.90;;;;;;4992239;28;20411;-45
2023/08/09 01:17:51;;;;;;;5.80;1.77;;;15.40;99.90;;;;;;4991860;28;20453;-44
2023/08/09 01:20:18;;;;;;;4.73;1.70;;;15.40;99.90;;;;;;4990729;28;20449;-44
2023/08/09 01:22:51;;;;;;;6.07;1.93;;;15.20;99.90;;;;;;4990966;28;20524;-44
2023/08/09 01:25:19;;;;;;;2.73;1.77;;;15.40;99.90;;;;;;4990785;28;20475;-44
2023/08/09 01:27:46;;;;;;;3.00;1.90;;;15.40;99.90;;;;;;4991441;28;20486;-45
2023/08/09 01:30:13;;;;;;;4.00;1.57;;;15.40;99.90;;;;;;4994517;28;20412;-44
2023/08/09 01:32:40;;;;;;;3.97;1.93;;;15.40;99.90;;;;;;4994215;28;20763;-46
2023/08/09 01:35:08;;;;;;;3.33;2.20;;;15.40;99.90;;;;;;4992745;28;20459;-45
2023/08/09 01:37:40;;;;;;;4.03;1.87;;;15.40;99.90;;;;;;4994297;28;20946;-44
2023/08/09 01:40:12;;;;;;;5.00;2.17;;;15.40;99.90;;;;;;4994588;28;20945;-44
2023/08/09 01:42:40;;;;;;;2.80;1.73;;;15.40;99.90;;;;;;4995902;28;20524;-45
2023/08/09 01:45:10;;;;;;;4.30;1.90;;;15.40;99.90;;;;;;4995563;28;20450;-45
2023/08/09 01:47:37;;;;;;;3.17;1.90;;;15.40;99.90;;;;;;4995337;28;20501;-44
2023/08/09 01:50:04;;;;;;;6.00;2.00;;;15.40;99.90;;;;;;4997493;28;20431;-45
2023/08/09 01:52:31;;;;;;;5.10;1.93;;;15.40;99.90;;;;;;4998593;28;20813;-45
2023/08/09 01:54:58;;;;;;;4.40;2.00;;;15.40;99.90;;;;;;4995280;28;20449;-45
2023/08/09 01:57:25;;;;;;;2.67;1.70;;;15.40;99.90;;;;;;4995642;28;20457;-45
2023/08/09 01:59:53;;;;;;;3.23;1.87;;;15.40;99.90;;;;;;4994565;28;20450;-45
2023/08/09 02:02:19;;;;;;;2.73;1.57;;;15.20;99.90;;;;;;4994188;28;20432;-45
2023/08/09 02:04:46;;;;;;;2.00;1.40;;;15.50;99.90;;;;;;4995627;28;20433;-44
2023/08/09 02:07:13;;;;;;;2.87;1.80;;;15.40;99.90;;;;;;4994964;28;20466;-45
2023/08/09 02:09:39;;;;;;;2.37;1.47;;;15.40;99.90;;;;;;4995279;28;20412;-44
2023/08/09 02:12:07;;;;;;;4.50;2.00;;;15.40;99.90;;;;;;4995071;28;20437;-44
2023/08/09 02:14:33;;;;;;;2.60;1.67;;;15.40;99.90;;;;;;4993654;28;20515;-44
2023/08/09 02:17:02;;;;;;;5.13;1.80;;;15.40;99.90;;;;;;4993354;28;20496;-44
2023/08/09 02:19:30;;;;;;;2.90;1.80;;;15.40;99.90;;;;;;4994977;28;20998;-44
2023/08/09 02:21:57;;;;;;;4.77;2.00;;;15.40;99.90;;;;;;4994916;28;20419;-45
2023/08/09 02:24:24;;;;;;;3.77;1.73;;;15.10;99.90;;;;;;4994871;28;20947;-45
2023/08/09 02:26:50;;;;;;;2.43;1.90;;;15.40;99.90;;;;;;4994396;28;20451;-45
2023/08/09 02:29:17;;;;;;;4.97;2.33;;;15.30;99.90;;;;;;4993416;28;20772;-44
2023/08/09 02:31:44;;;;;;;2.87;2.10;;;15.30;99.90;;;;;;4993279;28;20486;-45
2023/08/09 02:34:12;;;;;;;3.43;2.03;;;15.30;99.90;;;;;;4994745;28;20433;-45
2023/08/09 02:36:38;;;;;;;2.13;1.30;;;15.30;99.90;;;;;;4994300;28;20930;-45
2023/08/09 02:39:05;;;;;;;4.43;2.40;;;15.30;99.90;;;;;;4993435;28;20436;-44
2023/08/09 02:41:34;;;;;;;3.50;2.07;;;15.30;99.90;;;;;;4993106;28;20442;-44
2023/08/09 02:44:02;;;;;;;3.83;2.17;;;15.30;99.90;;;;;;4993538;28;20451;-45
2023/08/09 02:46:29;;;;;;;6.73;2.43;;;15.50;99.90;;;;;;4993279;28;20984;-44
2023/08/09 02:48:56;;;;;;;3.17;2.30;;;15.30;99.90;;;;;;4993338;28;20826;-43
2023/08/09 02:51:24;;;;;;;2.77;2.10;;;15.30;99.90;;;;;;4995039;28;20448;-44
2023/08/09 02:54:01;;;;;;;4.93;2.00;;;15.40;99.90;;;;;;4993387;28;20463;-45
2023/08/09 02:56:28;;;;;;;4.97;2.00;;;15.30;99.90;;;;;;4994114;28;20457;-45
2023/08/09 02:58:55;;;;;;;2.93;1.80;;;15.30;99.90;;;;;;4992500;28;20456;-44
2023/08/09 03:01:22;;;;;;;3.33;2.00;;;15.30;99.90;;;;;;4993063;28;20453;-44
2023/08/09 03:03:49;;;;;;;2.10;1.70;;;15.30;99.90;;;;;;4993024;28;20424;-44
2023/08/09 03:06:17;;;;;;;4.83;2.07;;;15.30;99.90;;;;;;4993003;28;20764;-44
2023/08/09 03:08:45;;;;;;;2.83;1.60;;;15.00;99.90;;;;;;4992362;28;20484;-44
2023/08/09 03:11:12;;;;;;;3.03;1.70;;;15.10;99.90;;;;;;4994028;28;20437;-45
2023/08/09 03:13:39;;;;;;;2.87;1.60;;;15.20;99.90;;;;;;4992632;28;20428;-45
2023/08/09 03:16:06;;;;;;;8.80;2.23;;;15.10;99.90;;;;;;4992465;28;20976;-44
2023/08/09 03:18:33;;;;;;;3.60;2.03;;;15.20;99.90;;;;;;4992119;28;20778;-44
2023/08/09 03:20:59;;;;;;;7.10;1.87;;;15.20;99.90;;;;;;4992631;28;20532;-44
2023/08/09 03:23:26;;;;;;;5.27;1.67;;;15.10;99.90;;;;;;4992410;28;20542;-46
2023/08/09 03:25:54;;;;;;;2.73;1.50;;;15.10;99.90;;;;;;4992161;28;20590;-45
2023/08/09 03:28:22;;;;;;;2.67;1.70;;;15.10;99.90;;;;;;4992022;28;20477;-45
2023/08/09 03:30:49;;;;;;;3.80;1.90;;;15.10;99.90;;;;;;4993726;28;20946;-44
2023/08/09 03:33:16;;;;;;;5.13;1.87;;;15.10;99.90;;;;;;4993754;28;20465;-44
2023/08/09 03:35:42;;;;;;;2.90;1.80;;;15.10;99.90;;;;;;4992063;28;20431;-44
2023/08/09 03:38:10;;;;;;;4.80;1.80;;;15.10;99.90;;;;;;4993002;28;20890;-45
2023/08/09 03:40:36;;;;;;;3.33;1.60;;;15.00;99.90;;;;;;4992436;28;20486;-44
2023/08/09 03:43:06;;;;;;;6.27;1.53;;;15.10;99.90;;;;;;4991999;28;20450;-44
2023/08/09 03:45:34;;;;;;;4.87;1.90;;;15.00;99.90;;;;;;4992157;28;20420;-43
2023/08/09 03:48:00;;;;;;;7.33;1.67;;;15.00;99.90;;;;;;4991568;28;20459;-44
2023/08/09 03:50:27;;;;;;;3.00;1.73;;;15.00;99.90;;;;;;4991959;28;20544;-44
2023/08/09 03:52:54;;;;;;;5.00;2.07;;;15.00;99.90;;;;;;4993202;28;20404;-44
2023/08/09 03:55:21;;;;;;;5.27;2.20;;;15.00;99.90;;;;;;4991895;28;20454;-45
2023/08/09 03:57:48;;;;;;;3.30;1.90;;;15.10;99.90;;;;;;4991362;28;20532;-44
2023/08/09 04:00:18;;;;;;;4.20;1.90;;;15.10;99.90;;;;;;4991685;28;20514;-44
2023/08/09 04:02:46;;;;;;;6.97;2.07;;;15.10;99.90;;;;;;4991766;28;20420;-45
2023/08/09 04:05:16;;;;;;;5.80;2.17;;;14.80;99.90;;;;;;4991577;28;20444;-45
2023/08/09 04:07:43;;;;;;;6.23;2.03;;;15.10;99.90;;;;;;4991060;28;21022;-44
2023/08/09 04:10:10;;;;;;;2.40;1.70;;;15.10;99.90;;;;;;4992864;28;20410;-45
2023/08/09 04:12:37;;;;;;;4.50;1.77;;;15.10;99.90;;;;;;4992058;28;20449;-45
2023/08/09 04:15:04;;;;;;;3.90;1.70;;;15.10;99.90;;;;;;4993053;28;20788;-44
2023/08/09 04:17:32;;;;;;;4.67;2.00;;;15.20;99.90;;;;;;4992407;28;20453;-45
2023/08/09 04:19:59;;;;;;;4.60;2.10;;;15.10;99.90;;;;;;4992855;28;20441;-45
2023/08/09 04:22:26;;;;;;;3.20;1.73;;;15.10;99.90;;;;;;4991457;28;20416;-44
2023/08/09 04:24:53;;;;;;;3.33;1.70;;;15.10;99.90;;;;;;4992604;28;20437;-46
2023/08/09 04:27:20;;;;;;;4.83;2.37;;;15.10;99.90;;;;;;4993297;28;20482;-45
2023/08/09 04:29:47;;;;;;;5.13;2.50;;;15.10;99.90;;;;;;4993632;28;20444;-45
2023/08/09 04:32:14;;;;;;;6.47;2.40;;;15.00;99.90;;;;;;4994776;28;20441;-45
2023/08/09 04:34:43;;;;;;;4.70;2.00;;;15.10;99.90;;;;;;4994437;28;20438;-45
2023/08/09 04:37:10;;;;;;;3.50;1.43;;;15.20;99.90;;;;;;4993864;28;21035;-44
2023/08/09 04:39:36;;;;;;;4.07;1.97;;;15.30;99.90;;;;;;4992703;28;20408;-45
2023/08/09 04:42:04;;;;;;;4.60;2.63;;;15.30;99.90;;;;;;4991954;28;20443;-45
2023/08/09 04:44:31;;;;;;;4.17;2.53;;;15.50;99.90;;;;;;4993839;28;20466;-45
2023/08/09 04:46:58;;;;;;;7.00;2.10;;;15.60;99.90;;;;;;4993188;28;20478;-45
2023/08/09 04:49:25;;;;;;;2.80;1.40;;;15.80;99.90;;;;;;4993077;28;20404;-46
2023/08/09 04:51:54;;;;;;;3.00;1.70;;;15.90;99.90;;;;;;4993603;28;20470;-45
2023/08/09 04:54:20;;;;;;;4.43;1.50;;;16.00;99.90;;;;;;4993445;28;20437;-45
2023/08/09 04:56:47;;;;;;;6.03;1.90;;;16.10;99.90;;;;;;4992914;28;20464;-46
2023/08/09 04:59:14;;;;;;;4.60;2.07;;;16.20;99.90;;;;;;4992830;28;20496;-44
2023/08/09 05:01:40;;;;;;;4.23;1.53;;;16.20;99.90;;;;;;4992931;28;20433;-45
2023/08/09 05:04:07;;;;;;;2.47;2.07;;;16.40;99.90;;;;;;4992702;28;20469;-45
2023/08/09 05:06:35;;;;;;;3.23;1.60;;;16.30;99.90;;;;;;4993652;28;20467;-45
2023/08/09 05:09:03;;;;;;;5.13;2.30;;;16.30;99.90;;;;;;4991995;28;20459;-45
2023/08/09 05:11:29;;;;;;;5.77;2.00;;;16.30;99.90;;;;;;4992859;28;20442;-45
2023/08/09 05:13:56;;;;;;;7.17;2.67;;;16.30;99.90;;;;;;4996071;28;20529;-46
2023/08/09 05:16:24;;;;;;;7.73;2.60;;;16.30;99.90;;;;;;4994433;28;20471;-45
2023/08/09 05:18:51;;;;;;;3.30;1.67;;;16.30;99.90;;;;;;4995444;28;20527;-45
2023/08/09 05:21:18;;;;;;;3.77;2.33;;;16.20;99.90;;;;;;4996107;28;20467;-45
2023/08/09 05:23:44;;;;;;;3.53;1.77;;;16.20;99.90;;;;;;4995858;28;20442;-45
2023/08/09 05:26:12;;;;;;;7.70;3.00;;;16.10;99.90;;;;;;4995544;28;20453;-45
2023/08/09 05:28:39;;;;;;;3.97;2.17;;;16.30;99.90;;;;;;4995056;28;21006;-44
2023/08/09 05:31:05;;;;;;;5.80;2.20;;;16.20;99.90;;;;;;4995641;28;20445;-44
2023/08/09 05:33:32;;;;;;;4.10;1.77;;;16.00;99.90;;;;;;4994595;28;20450;-44
2023/08/09 05:35:59;;;;;;;4.33;1.73;;;16.30;99.90;;;;;;4995698;28;20462;-44
2023/08/09 05:38:26;;;;;;;7.20;2.00;;;16.30;99.90;;;;;;4995864;28;20523;-45
2023/08/09 05:40:53;;;;;;;7.90;2.27;;;16.30;99.90;;;;;;4996589;28;21051;-45
2023/08/09 05:43:21;;;;;;;3.43;1.77;;;16.30;99.90;;;;;;4997097;28;20444;-44
2023/08/09 05:45:47;;;;;;;8.70;2.33;;;16.40;99.90;;;;;;4997679;28;20457;-44
2023/08/09 05:48:14;;;;;;;3.60;1.80;;;16.50;99.90;;;;;;4996043;28;20474;-45
2023/08/09 05:50:40;;;;;;;4.87;2.10;;;16.60;99.90;;;;;;4996096;28;20431;-45
2023/08/09 05:53:09;;;;;;;7.90;2.90;;;16.70;99.90;;;;;;4995676;28;20449;-45
2023/08/09 05:55:36;;;;;;;6.47;2.10;;;16.80;99.90;;;;;;4995412;28;20923;-45
2023/08/09 05:58:03;;;;;;;3.53;1.43;;;16.90;99.90;;;;;;4994655;28;20435;-45
2023/08/09 06:00:31;;;;;;;5.10;2.43;;;17.00;99.90;;;;;;4994734;28;20485;-45
2023/08/09 06:02:58;;;;;;;5.33;2.00;;;17.10;99.90;;;;;;4993553;28;20564;-45
2023/08/09 06:05:25;;;;;;;6.23;1.80;;;17.50;99.90;;;;;;4994548;28;20441;-45
2023/08/09 06:07:52;;;;;;;5.43;1.77;;;17.40;99.90;;;;;;4994786;28;20473;-45
2023/08/09 06:10:19;;;;;;;5.97;2.43;;;17.50;99.90;;;;;;4995348;28;20434;-45
2023/08/09 06:12:46;;;;;;;7.20;2.30;;;17.40;99.90;;;;;;4994711;28;20781;-45
2023/08/09 06:15:13;;;;;;;10.63;2.20;;;17.80;99.90;;;;;;4995197;28;20449;-45
2023/08/09 06:17:41;;;;;;;2.90;1.67;;;18.00;99.90;;;;;;4994756;28;20868;-45
2023/08/09 06:20:09;;;;;;;3.87;2.10;;;18.00;99.90;;;;;;4994985;28;20454;-46
2023/08/09 06:22:35;;;;;;;6.07;2.60;;;18.20;99.90;;;;;;4994562;28;20878;-46
2023/08/09 06:25:02;;;;;;;9.57;2.90;;;18.30;99.90;;;;;;4994643;28;20809;-46
2023/08/09 06:27:29;;;;;;;4.33;2.10;;;18.40;99.90;;;;;;4994493;28;20491;-46
2023/08/09 06:29:55;;;;;;;7.07;2.13;;;18.40;99.90;;;;;;4994867;28;20412;-45
2023/08/09 06:32:22;;;;;;;5.00;1.90;;;18.30;99.80;;;;;;4994874;28;20463;-46
2023/08/09 06:34:50;;;;;;;5.70;1.73;;;18.20;99.70;;;;;;4994883;28;20447;-47
2023/08/09 06:37:17;;;;;;;4.97;1.93;;;18.10;99.80;;;;;;5020973;22;20960;-43
2023/08/09 06:39:44;;;;;;;3.47;1.80;;;18.00;99.60;;;;;;4996200;28;20448;-43
2023/08/09 06:42:12;;;;;;;6.30;2.20;;;18.10;99.60;;;;;;4996112;28;20469;-43
2023/08/09 06:44:38;;;;;;;5.63;2.80;;;18.00;99.80;;;;;;4996016;28;20506;-43
2023/08/09 06:47:05;;;;;;;3.50;1.67;;;18.00;99.90;;;;;;4996197;28;20531;-42
2023/08/09 06:49:32;;;;;;;6.00;2.20;;;18.20;99.90;;;;;;4995885;28;20483;-42
2023/08/09 06:52:00;;;;;;;2.97;1.70;;;18.20;99.90;;;;;;4995749;28;20415;-41
2023/08/09 06:54:27;;;;;;;4.80;1.80;;;18.30;99.90;;;;;;4995685;28;20447;-42
2023/08/09 06:56:54;;;;;;;4.87;2.23;;;18.30;99.90;;;;;;4995236;28;20453;-44
2023/08/09 06:59:20;;;;;;;5.30;2.33;;;18.40;99.90;;;;;;4995409;28;20447;-41
2023/08/09 07:01:48;;;;;;;8.80;1.80;;;18.40;99.90;;;;;;4995833;28;20430;-43
2023/08/09 07:04:15;;;;;;;3.20;1.67;;;18.50;99.90;;;;;;4995765;28;20426;-42
2023/08/09 07:06:42;;;;;;;5.30;1.93;;;18.50;99.30;;;;;;4994678;28;20449;-41
2023/08/09 07:09:11;;;;;;;5.60;2.17;;;18.60;99.40;;;;;;4995559;28;21028;-42
2023/08/09 07:11:37;;;;;;;6.33;2.67;;;18.80;99.60;;;;;;4995131;28;20433;-42
2023/08/09 07:14:05;;;;;;;9.10;3.13;;;18.90;99.50;;;;;;4993516;28;20446;-45
2023/08/09 07:16:31;;;;;;;4.53;1.90;;;19.00;99.10;;;;;;4995175;28;20465;-42
2023/08/09 07:18:58;;;;;;;7.37;2.20;;;19.00;98.90;;;;;;5000243;28;20433;-42
2023/08/09 07:21:26;;;;;;;7.73;2.27;;;19.00;98.80;;;;;;4997748;28;20437;-42
2023/08/09 07:23:53;;;;;;;5.20;1.80;;;19.10;98.80;;;;;;4994827;28;20445;-45
2023/08/09 07:26:21;;;;;;;5.03;2.50;;;19.20;98.50;;;;;;4995064;28;20552;-42
2023/08/09 07:28:48;;;;;;;9.73;5.07;;;19.20;98.50;;;;;;4994438;28;20473;-42
2023/08/09 07:31:19;;;;;;;24.77;9.13;;;19.30;98.60;;;;;;4994973;28;20444;-46
2023/08/09 07:33:46;;;;;;;7.73;4.10;;;19.30;98.60;;;;;;4995042;28;20460;-42
2023/08/09 07:36:12;;;;;;;7.83;2.63;;;19.30;98.40;;;;;;4994402;28;20474;-41
2023/08/09 07:38:39;;;;;;;11.50;2.37;;;19.30;97.90;;;;;;4994579;28;20445;-42
2023/08/09 07:41:06;;;;;;;9.77;2.50;;;19.20;97.70;;;;;;4995026;28;20442;-41
2023/08/09 07:43:34;;;;;;;4.33;1.80;;;19.20;97.80;;;;;;4994514;28;20795;-42
2023/08/09 07:46:03;;;;;;;5.97;1.90;;;19.20;97.80;;;;;;4992968;28;20453;-42
2023/08/09 07:48:30;;;;;;;6.00;1.93;;;19.20;97.60;;;;;;4993766;28;20538;-41
2023/08/09 07:50:56;;;;;;;5.50;2.20;;;19.30;97.80;;;;;;4994946;28;20445;-41
2023/08/09 07:53:23;;;;;;;8.13;4.03;;;19.30;97.70;;;;;;4995499;28;20449;-43
2023/08/09 07:55:50;;;;;;;8.37;2.40;;;19.50;97.60;;;;;;4994650;28;20956;-42
2023/08/09 07:58:16;;;;;;;11.83;7.07;;;19.60;97.50;;;;;;4996741;28;20442;-41
2023/08/09 08:00:44;;;;;;;6.67;2.17;;;19.70;97.30;;;;;;4993869;28;20430;-44
2023/08/09 08:03:11;;;;;;;4.83;1.93;;;19.70;97.10;;;;;;4994377;28;20439;-42
2023/08/09 08:05:38;;;;;;;10.57;2.53;;;19.80;96.80;;;;;;4993750;28;20431;-41
2023/08/09 08:08:05;;;;;;;8.53;2.43;;;19.80;96.70;;;;;;4993873;28;20468;-44
2023/08/09 08:10:32;;;;;;;5.57;1.70;;;19.80;96.50;;;;;;4993182;28;20442;-43
2023/08/09 08:12:59;;;;;;;9.53;2.17;;;19.80;96.50;;;;;;4994395;28;20489;-41
2023/08/09 08:15:25;;;;;;;5.27;2.13;;;19.80;96.10;;;;;;4994137;28;20815;-40
2023/08/09 08:17:54;;;;;;;9.73;1.93;;;19.90;96.10;;;;;;4992945;28;20458;-43
2023/08/09 08:20:21;;;;;;;5.90;2.50;;;19.90;95.70;;;;;;4995737;28;20439;-41
2023/08/09 08:22:49;;;;;;;24.47;20.80;;;19.80;95.90;;;;;;4994379;28;20449;-40
2023/08/09 08:25:19;;;;;;;5.20;2.10;;;19.80;96.20;;;;;;4994526;28;20429;-42
2023/08/09 08:27:46;;;;;;;18.37;4.27;;;19.90;96.00;;;;;;4994239;28;20464;-45
2023/08/09 08:30:14;;;;;;;4.37;1.93;;;20.10;96.00;;;;;;4994632;28;20493;-41
2023/08/09 08:32:41;;;;;;;5.20;1.87;;;20.20;95.60;;;;;;4994720;28;20439;-42
2023/08/09 08:35:13;;;;;;;6.47;1.83;;;20.30;95.60;;;;;;4994707;28;20981;-41
2023/08/09 08:37:40;;;;;;;7.67;2.23;;;20.50;95.20;;;;;;4998255;28;20470;-40
2023/08/09 08:40:08;;;;;;;4.53;1.73;;;20.60;94.80;;;;;;5001130;28;20448;-43
2023/08/09 08:42:35;;;;;;;9.10;2.40;;;20.60;94.50;;;;;;5000756;28;20938;-42
2023/08/09 08:45:09;;;;;;;33.03;6.10;;;20.60;94.20;;;;;;5001323;28;20946;-42
2023/08/09 08:47:38;;;;;;;9.43;2.67;;;20.60;93.90;;;;;;5001025;28;20462;-43
2023/08/09 08:50:06;;;;;;;10.73;2.50;;;20.70;93.90;;;;;;5000779;28;20613;-40
2023/08/09 08:52:35;;;;;;;4.70;1.73;;;20.80;93.70;;;;;;4999554;28;20463;-42
2023/08/09 08:55:01;;;;;;;5.30;1.80;;;20.90;93.80;;;;;;5002475;28;20777;-42
2023/08/09 08:57:28;;;;;;;6.50;1.67;;;21.00;93.80;;;;;;5000436;28;20456;-42
2023/08/09 08:59:56;;;;;;;8.73;3.07;;;21.00;92.90;;;;;;5001245;28;20440;-43
2023/08/09 09:02:23;;;;;;;9.20;2.00;;;21.00;92.80;;;;;;4998881;28;20455;-44
2023/08/09 09:04:49;;;;;;;4.63;1.87;;;21.10;92.60;;;;;;5002702;28;20445;-43
2023/08/09 09:07:16;;;;;;;6.00;1.53;;;21.10;92.40;;;;;;4994186;28;20453;-43
2023/08/09 09:09:57;;;;;;;4.20;1.43;;;21.30;92.20;;;;;;4993639;28;20483;-41
2023/08/09 09:12:24;;;;;;;5.70;1.80;;;21.30;92.00;;;;;;4993724;28;20463;-40
2023/08/09 09:14:52;;;;;;;5.83;1.57;;;21.30;92.20;;;;;;4993682;28;20532;-44
2023/08/09 09:17:19;;;;;;;3.53;1.30;;;21.30;92.20;;;;;;4992953;28;20489;-42
2023/08/09 09:19:46;;;;;;;6.87;1.50;;;21.50;92.00;;;;;;4993582;28;20433;-41
2023/08/09 09:22:26;;;;;;;5.37;1.70;;;21.60;92.00;;;;;;4993367;28;20433;-40
2023/08/09 09:24:58;;;;;;;6.73;2.07;;;21.70;91.80;;;;;;4994781;28;20437;-44
2023/08/09 09:27:28;;;;;;;7.53;1.67;;;21.90;91.90;;;;;;4995336;28;20569;-43
2023/08/09 09:29:55;;;;;;;2.50;1.53;;;22.00;91.90;;;;;;4991872;28;20472;-46
2023/08/09 09:32:22;;;;;;;5.60;1.93;;;22.10;91.20;;;;;;4992550;28;20438;-46
2023/08/09 09:34:51;;;;;;;14.20;8.83;;;22.00;90.90;;;;;;4992481;28;20439;-46
2023/08/09 09:37:23;;;;;;;19.27;17.20;;;21.90;90.50;;;;;;4991624;28;20509;-46
2023/08/09 09:39:51;;;;;;;6.40;2.20;;;22.00;90.40;;;;;;4992278;28;20438;-45
2023/08/09 09:42:31;;;;;;;5.00;1.40;;;22.00;90.30;;;;;;4992263;28;20442;-45
2023/08/09 09:45:04;;;;;;;20.53;3.47;;;22.00;87.80;;;;;;4992203;28;20527;-44
2023/08/09 09:47:34;;;;;;;5.33;1.90;;;21.90;88.20;;;;;;4991999;28;20457;-45
2023/08/09 09:50:01;;;;;;;85.87;10.63;;;21.80;88.30;;;;;;4992334;28;20478;-45
2023/08/09 09:52:29;;;;;;;3.30;1.50;;;21.80;88.90;;;;;;4993353;28;20461;-46
2023/08/09 09:54:57;;;;;;;5.57;1.40;;;21.80;87.70;;;;;;4993656;28;20445;-46
2023/08/09 09:57:25;;;;;;;6.43;2.10;;;21.60;85.50;;;;;;4992340;28;20457;-46
2023/08/09 09:59:52;;;;;;;11.63;2.50;;;21.40;86.00;;;;;;4997070;28;20511;-47
2023/08/09 10:02:20;;;;;;;19.23;2.67;;;21.30;87.80;;;;;;4997357;28;20769;-46
2023/08/09 10:04:48;;;;;;;4.93;1.90;;;21.40;89.00;;;;;;4997348;28;20935;-46
2023/08/09 10:07:16;;;;;;;6.70;1.47;;;21.50;89.70;;;;;;4995972;28;20456;-46
2023/08/09 10:09:43;;;;;;;6.63;1.70;;;21.60;88.90;;;;;;4995955;28;20486;-45
2023/08/09 10:12:11;;;;;;;6.30;1.80;;;21.60;88.40;;;;;;4995532;28;20436;-46
2023/08/09 10:14:40;;;;;;;6.47;1.50;;;21.50;88.30;;;;;;4995607;28;20511;-46
2023/08/09 10:17:08;;;;;;;6.33;2.00;;;21.50;88.00;;;;;;4995373;28;20449;-47
2023/08/09 10:19:36;;;;;;;6.10;2.20;;;21.50;87.50;;;;;;4995460;28;20451;-45
2023/08/09 10:22:03;;;;;;;6.50;1.40;;;21.40;86.70;;;;;;4995467;28;20530;-48
2023/08/09 10:24:30;;;;;;;6.10;2.10;;;21.40;86.40;;;;;;4995580;28;20972;-46
2023/08/09 10:27:01;;;;;;;4.93;1.77;;;21.60;86.20;;;;;;4994850;28;20476;-46
2023/08/09 10:29:28;;;;;;;5.50;2.10;;;21.80;86.20;;;;;;4995494;28;20509;-46
2023/08/09 10:32:00;;;;;;;2.87;1.43;;;21.90;85.10;;;;;;4995186;28;20456;-46
2023/08/09 10:34:34;;;;;;;3.30;1.43;;;21.90;84.40;;;;;;4995365;28;20442;-46
2023/08/09 10:37:01;;;;;;;5.33;2.20;;;21.80;84.20;;;;;;4994618;28;20528;-47
2023/08/09 10:39:28;;;;;;;7.93;5.47;;;21.90;84.80;;;;;;4994918;28;20966;-46
2023/08/09 10:42:06;;;;;;;5.93;2.83;;;21.90;85.00;;;;;;4995099;28;20445;-46
2023/08/09 10:44:40;;;;;;;4.53;1.33;;;21.90;85.30;;;;;;4994973;28;20445;-45
2023/08/09 10:47:11;;;;;;;3.73;1.57;;;22.10;86.00;;;;;;4994461;28;20524;-47
2023/08/09 10:50:00;;;;;;;6.83;1.50;;;21.90;85.20;;;;;;4994750;28;20496;-46
2023/08/09 10:52:35;;;;;;;5.83;1.73;;;22.10;84.40;;;;;;4995268;28;20844;-45
2023/08/09 10:55:29;;;;;;;5.60;1.27;;;21.90;84.10;;;;;;4994946;28;20439;-46
2023/08/09 10:57:58;;;;;;;8.33;1.50;;;21.80;84.30;;;;;;4994427;28;20481;-44
2023/08/09 11:00:26;;;;;;;3.77;1.63;;;21.70;85.10;;;;;;4994677;28;20435;-47
2023/08/09 11:02:56;;;;;;;4.50;1.90;;;21.60;85.30;;;;;;4994769;28;20437;-46
2023/08/09 11:05:23;;;;;;;17.17;15.40;;;21.40;84.80;;;;;;4994452;28;20507;-45
2023/08/09 11:07:51;;;;;;;7.60;2.93;;;21.80;85.40;;;;;;4994130;28;20462;-46
2023/08/09 11:10:31;;;;;;;9.60;4.20;;;22.00;85.00;;;;;;4993973;28;20480;-46
2023/08/09 11:12:57;;;;;;;10.30;1.50;;;22.10;84.20;;;;;;4994819;28;20453;-47
2023/08/09 11:15:24;;;;;;;3.60;1.80;;;22.10;83.80;;;;;;4995205;28;20442;-44
2023/08/09 11:17:51;;;;;;;22.00;3.40;;;22.20;84.20;;;;;;4994748;28;20468;-49
2023/08/09 11:20:19;;;;;;;3.23;1.40;;;22.20;85.20;;;;;;4994665;28;20534;-47
2023/08/09 11:22:52;;;;;;;5.60;1.63;;;22.30;85.80;;;;;;4994150;28;20803;-45
2023/08/09 11:25:18;;;;;;;6.20;3.20;;;22.30;85.40;;;;;;4994658;28;20449;-46
2023/08/09 11:27:45;;;;;;;9.90;2.37;;;22.40;85.20;;;;;;4994203;28;20800;-47
2023/08/09 11:30:12;;;;;;;8.87;2.53;;;22.60;85.30;;;;;;4994570;28;20515;-47
2023/08/09 11:32:39;;;;;;;6.53;2.17;;;22.80;85.20;;;;;;4994776;28;20435;-47
2023/08/09 11:35:07;;;;;;;7.10;2.17;;;22.90;85.90;;;;;;4994382;28;20436;-47
2023/08/09 11:37:34;;;;;;;7.37;2.33;;;23.00;85.20;;;;;;4994075;28;20496;-46
2023/08/09 11:40:01;;;;;;;3.83;1.97;;;23.10;84.50;;;;;;4994357;28;20440;-47
2023/08/09 11:42:28;;;;;;;4.20;1.43;;;23.10;83.20;;;;;;4993736;28;20431;-47
2023/08/09 11:44:55;;;;;;;4.90;1.33;;;23.20;82.80;;;;;;4994303;28;20470;-45
2023/08/09 11:47:21;;;;;;;3.40;1.90;;;23.20;82.60;;;;;;4993646;28;20427;-47
2023/08/09 11:49:48;;;;;;;7.57;2.37;;;23.30;82.50;;;;;;4994139;28;21012;-46
2023/08/09 11:52:16;;;;;;;4.60;1.50;;;23.20;81.80;;;;;;4994046;28;20428;-46
2023/08/09 11:54:44;;;;;;;4.37;1.80;;;23.00;81.90;;;;;;4994107;28;20942;-45
2023/08/09 11:57:11;;;;;;;6.50;2.07;;;23.00;82.00;;;;;;4993300;28;21009;-44
2023/08/09 11:59:40;;;;;;;4.50;2.10;;;22.80;81.90;;;;;;4993680;28;20441;-46
2023/08/09 12:02:07;;;;;;;6.30;1.97;;;22.60;82.30;;;;;;4994223;28;20815;-46
2023/08/09 12:04:34;;;;;;;3.20;1.40;;;22.70;82.50;;;;;;4994221;28;20445;-47
2023/08/09 12:07:05;;;;;;;6.93;2.60;;;22.60;82.70;;;;;;4993440;28;20448;-45
2023/08/09 12:09:34;;;;;;;5.30;1.60;;;22.30;83.00;;;;;;4993501;28;20834;-45
2023/08/09 12:12:07;;;;;;;4.13;2.40;;;22.50;83.40;;;;;;4993557;28;20878;-46
2023/08/09 12:14:35;;;;;;;6.53;2.43;;;22.50;83.10;;;;;;4993617;28;20440;-46
2023/08/09 12:17:02;;;;;;;3.93;1.63;;;22.40;83.00;;;;;;4992966;28;20473;-45
2023/08/09 12:19:29;;;;;;;5.97;1.70;;;22.20;82.80;;;;;;4993572;28;20533;-46
2023/08/09 12:21:56;;;;;;;4.77;2.03;;;22.00;82.80;;;;;;4993070;28;20849;-45
2023/08/09 12:24:23;;;;;;;5.63;1.77;;;21.90;82.60;;;;;;4993010;28;20435;-46
2023/08/09 12:26:50;;;;;;;3.27;1.60;;;21.80;83.10;;;;;;4992960;28;20462;-47
2023/08/09 12:29:18;;;;;;;4.57;1.60;;;21.90;83.60;;;;;;4993323;28;20453;-48
2023/08/09 12:31:45;;;;;;;5.97;2.13;;;21.90;83.20;;;;;;4993249;28;20490;-46
2023/08/09 12:34:12;;;;;;;6.50;2.40;;;22.00;83.30;;;;;;4993717;28;20515;-47
2023/08/09 12:36:39;;;;;;;2.47;1.37;;;22.10;83.70;;;;;;5022629;23;20623;-43
2023/08/09 12:39:10;;;;;;;5.43;2.00;;;22.10;83.30;;;;;;5013527;28;20444;-44
2023/08/09 12:41:36;;;;;;;3.70;1.40;;;22.10;82.70;;;;;;5013452;28;20501;-45
2023/08/09 12:44:04;;;;;;;6.57;2.20;;;22.20;82.50;;;;;;5012928;28;20800;-43
2023/08/09 12:46:32;;;;;;;5.67;1.77;;;22.20;82.10;;;;;;5012802;28;20462;-43
2023/08/09 12:48:59;;;;;;;8.30;6.50;;;22.20;81.70;;;;;;5012541;28;20495;-44
2023/08/09 12:51:25;;;;;;;4.40;1.70;;;22.20;82.00;;;;;;5013216;28;20484;-45